Time;durP1;ratioP1;P1;durP2;ratioP2;P2;SDS_P1;SDS_P2;PMS_P1;PMS_P2;Temp;Humidity;BMP_temperature;BMP_pressure;BME280_temperature;BME280_humidity;BME280_pressure;Samples;Min_cycle;Max_cycle;Signal;HPM_P1;HPM_P2
2022/12/23 00:00:43;;;;;;;1999.90;999.90;;;9.90;99.90;;;;;;5019014;28;20457;-70
2022/12/23 00:03:09;;;;;;;1999.90;999.90;;;9.90;99.90;;;;;;5006063;28;20454;-71
2022/12/23 00:05:36;;;;;;;1999.90;999.90;;;10.00;99.90;;;;;;5006043;28;20470;-71
2022/12/23 00:08:03;;;;;;;1999.90;999.90;;;9.90;99.90;;;;;;5006148;28;20453;-72
2022/12/23 00:10:30;;;;;;;1999.90;999.90;;;9.90;99.90;;;;;;5002735;28;20473;-71
2022/12/23 00:15:43;;;;;;;1999.90;999.90;;;9.90;99.90;;;;;;5007680;28;20524;-71
2022/12/23 00:18:10;;;;;;;1999.90;999.90;;;10.00;99.90;;;;;;5005709;28;20458;-70
2022/12/23 00:20:36;;;;;;;1999.90;999.90;;;10.00;99.90;;;;;;5006143;28;20454;-70
2022/12/23 00:23:06;;;;;;;1999.90;999.90;;;10.00;99.90;;;;;;5013152;28;20457;-70
2022/12/23 00:25:40;;;;;;;1999.90;999.90;;;10.00;99.90;;;;;;5021414;28;21003;-69
2022/12/23 00:28:11;;;;;;;1999.90;999.90;;;10.00;99.90;;;;;;5025288;28;20440;-71
2022/12/23 00:30:38;;;;;;;1999.90;999.90;;;10.00;99.90;;;;;;5010231;28;21273;-71
2022/12/23 00:33:05;;;;;;;1999.90;999.90;;;10.00;99.90;;;;;;5005478;28;20845;-71
2022/12/23 00:35:32;;;;;;;1999.90;999.90;;;10.00;99.90;;;;;;5025195;28;20474;-70
2022/12/23 00:37:59;;;;;;;1999.90;999.90;;;9.90;99.90;;;;;;5025607;28;21070;-70
2022/12/23 00:43:11;;;;;;;1999.90;999.90;;;10.00;99.90;;;;;;5025185;28;20420;-71
2022/12/23 00:45:38;;;;;;;1999.90;999.90;;;10.00;99.90;;;;;;5025363;28;21007;-70
2022/12/23 00:50:52;;;;;;;1999.90;999.90;;;10.00;99.90;;;;;;5023710;28;20522;-70
2022/12/23 00:53:19;;;;;;;1999.90;999.90;;;10.00;99.90;;;;;;5021207;28;20460;-69
2022/12/23 00:55:47;;;;;;;1999.90;999.90;;;10.00;99.90;;;;;;5008697;28;20466;-70
2022/12/23 00:58:16;;;;;;;1999.90;999.90;;;10.00;99.90;;;;;;5005469;28;20457;-70
2022/12/23 01:06:12;;;;;;;1999.90;999.90;;;10.10;99.90;;;;;;5005810;28;20414;-70
2022/12/23 01:08:39;;;;;;;1999.90;999.90;;;10.10;99.90;;;;;;5009289;28;20878;-70
2022/12/23 01:11:08;;;;;;;1999.90;999.90;;;10.10;99.90;;;;;;5026009;28;20488;-70
2022/12/23 01:13:36;;;;;;;1999.90;999.90;;;10.10;99.90;;;;;;5029477;28;20472;-71
2022/12/23 01:16:05;;;;;;;1999.90;999.90;;;10.20;99.90;;;;;;5028711;28;20480;-71
2022/12/23 01:18:33;;;;;;;1999.90;999.90;;;10.20;99.90;;;;;;5025955;28;20460;-72
2022/12/23 01:21:02;;;;;;;1999.90;999.90;;;10.20;99.90;;;;;;5008973;28;20445;-71
2022/12/23 01:23:29;;;;;;;1999.90;999.90;;;10.20;99.90;;;;;;5017268;28;20944;-71
2022/12/23 01:25:57;;;;;;;1999.90;999.90;;;10.20;99.90;;;;;;5024125;28;20475;-71
2022/12/23 01:28:24;;;;;;;1999.90;999.90;;;10.30;99.90;;;;;;5009190;28;21045;-70
2022/12/23 01:30:52;;;;;;;1999.90;999.90;;;10.30;99.90;;;;;;5009059;28;20452;-71
2022/12/23 01:33:19;;;;;;;1999.90;999.90;;;10.40;99.90;;;;;;5008651;28;21251;-72
2022/12/23 01:35:45;;;;;;;1999.90;999.90;;;10.40;99.90;;;;;;5008732;28;20488;-71
2022/12/23 01:38:12;;;;;;;1999.90;999.90;;;10.40;99.90;;;;;;5009680;28;20484;-72
2022/12/23 01:40:41;;;;;;;1999.90;999.90;;;10.40;99.90;;;;;;5009133;28;20456;-71
2022/12/23 01:43:13;;;;;;;1999.90;999.90;;;10.40;99.90;;;;;;5008473;28;20449;-71
2022/12/23 01:45:40;;;;;;;1999.90;999.90;;;10.50;99.90;;;;;;5010932;28;20465;-71
2022/12/23 01:48:15;;;;;;;1999.90;999.90;;;10.50;99.90;;;;;;5011059;28;20449;-72
2022/12/23 01:50:46;;;;;;;1999.90;999.90;;;10.50;99.90;;;;;;5010756;28;20452;-72
2022/12/23 01:53:17;;;;;;;1999.90;999.90;;;10.50;99.90;;;;;;5011397;28;20476;-71
2022/12/23 01:55:48;;;;;;;1999.90;999.90;;;10.50;99.90;;;;;;5010523;28;20462;-71
2022/12/23 01:58:17;;;;;;;1999.90;999.90;;;10.60;99.90;;;;;;5009838;28;20449;-72
2022/12/23 02:03:42;;;;;;;1999.90;999.90;;;10.60;99.90;;;;;;5029528;28;20452;-72
2022/12/23 02:12:06;;;;;;;1999.90;999.90;;;10.70;99.90;;;;;;5029939;28;20507;-72
2022/12/23 02:17:43;;;;;;;1999.90;999.90;;;10.80;99.90;;;;;;5030179;28;20946;-71
2022/12/23 02:20:36;;;;;;;1999.90;999.90;;;10.80;99.90;;;;;;5010084;28;20457;-72
2022/12/23 02:23:44;;;;;;;1999.90;999.90;;;10.80;99.90;;;;;;5003283;28;20453;-71
2022/12/23 02:26:32;;;;;;;1999.90;999.90;;;10.80;99.90;;;;;;5007566;28;20480;-71
2022/12/23 02:29:31;;;;;;;1999.90;999.90;;;10.90;99.90;;;;;;5008969;28;20453;-71
2022/12/23 02:32:07;;;;;;;1999.90;999.90;;;10.90;99.90;;;;;;5009983;28;20478;-72
2022/12/23 02:34:40;;;;;;;1999.90;999.90;;;10.90;99.90;;;;;;5009872;28;20478;-71
2022/12/23 02:37:12;;;;;;;1999.90;999.90;;;10.90;99.90;;;;;;5010130;28;20449;-71
2022/12/23 02:39:51;;;;;;;1999.90;999.90;;;11.00;99.90;;;;;;5009073;28;20457;-71
2022/12/23 02:42:22;;;;;;;1999.90;999.90;;;11.00;99.90;;;;;;5011001;28;20442;-71
2022/12/23 02:44:59;;;;;;;1999.90;999.90;;;11.00;99.90;;;;;;5009946;28;20477;-71
2022/12/23 02:47:31;;;;;;;1999.90;999.90;;;11.00;99.90;;;;;;5010194;28;20462;-71
2022/12/23 02:50:03;;;;;;;1999.90;999.90;;;11.00;99.90;;;;;;5008997;28;20453;-72
2022/12/23 02:52:33;;;;;;;1999.90;999.90;;;11.10;99.90;;;;;;5009100;28;20478;-72
2022/12/23 02:55:04;;;;;;;1999.90;999.90;;;11.10;99.90;;;;;;5009611;28;20473;-71
2022/12/23 02:57:35;;;;;;;1999.90;999.90;;;11.00;99.90;;;;;;5009562;28;20458;-71
2022/12/23 03:00:03;;;;;;;1999.90;999.90;;;11.00;99.90;;;;;;5009726;28;20457;-71
2022/12/23 03:02:32;;;;;;;1999.90;999.90;;;11.00;99.90;;;;;;5008501;28;20970;-71
2022/12/23 03:04:59;;;;;;;1999.90;999.90;;;11.10;99.90;;;;;;5009054;28;20891;-71
2022/12/23 03:07:32;;;;;;;1999.90;999.90;;;11.10;99.90;;;;;;5017977;28;20449;-72
2022/12/23 03:10:06;;;;;;;1999.90;999.90;;;11.10;99.90;;;;;;5028067;28;20955;-73
2022/12/23 03:12:46;;;;;;;1999.90;999.90;;;11.20;99.90;;;;;;5028380;28;21096;-72
2022/12/23 03:15:24;;;;;;;1999.90;999.90;;;11.20;99.90;;;;;;5016163;28;20470;-72
2022/12/23 03:18:02;;;;;;;1999.90;999.90;;;11.20;99.90;;;;;;5009372;28;20444;-71
2022/12/23 03:20:39;;;;;;;1999.90;999.90;;;11.30;99.90;;;;;;5008633;28;20449;-71
2022/12/23 03:23:12;;;;;;;1999.90;999.90;;;11.30;99.90;;;;;;5008690;28;21096;-71
2022/12/23 03:25:44;;;;;;;1999.90;999.90;;;11.30;99.90;;;;;;5008686;28;20995;-72
2022/12/23 03:28:15;;;;;;;1999.90;999.90;;;11.40;99.90;;;;;;5008758;28;20445;-72
2022/12/23 03:30:47;;;;;;;1999.90;999.90;;;11.40;99.90;;;;;;5009640;28;20453;-71
2022/12/23 03:33:19;;;;;;;1999.90;999.90;;;11.40;99.90;;;;;;5008494;28;20478;-72
2022/12/23 03:35:49;;;;;;;1999.90;999.90;;;11.40;99.90;;;;;;5007759;28;20466;-70
2022/12/23 03:38:19;;;;;;;1999.90;999.90;;;11.40;99.90;;;;;;5008034;28;20458;-72
2022/12/23 03:40:49;;;;;;;1999.90;999.90;;;11.40;99.90;;;;;;5008963;28;20453;-71
2022/12/23 03:43:20;;;;;;;1999.90;999.90;;;11.30;99.90;;;;;;5028085;28;20443;-71
2022/12/23 03:45:52;;;;;;;1999.90;999.90;;;11.30;99.90;;;;;;5010971;28;20478;-72
2022/12/23 03:48:26;;;;;;;1999.90;999.90;;;11.30;99.90;;;;;;5007504;28;21217;-72
2022/12/23 03:50:58;;;;;;;1999.90;999.90;;;11.20;99.90;;;;;;5008360;28;20449;-72
2022/12/23 03:53:29;;;;;;;1999.90;999.90;;;11.20;99.90;;;;;;5008028;28;20497;-72
2022/12/23 03:56:03;;;;;;;1999.90;999.90;;;11.20;99.90;;;;;;5008306;28;20477;-72
2022/12/23 03:58:37;;;;;;;1999.90;999.90;;;11.20;99.90;;;;;;5025616;28;20448;-71
2022/12/23 04:01:11;;;;;;;1999.90;999.90;;;11.20;99.90;;;;;;5023698;28;20456;-71
2022/12/23 04:03:48;;;;;;;1999.90;999.90;;;11.10;99.90;;;;;;5027487;28;20437;-71
2022/12/23 04:06:16;;;;;;;1999.90;999.90;;;11.10;99.90;;;;;;5027961;28;20440;-73
2022/12/23 04:08:45;;;;;;;1999.90;999.90;;;11.10;99.90;;;;;;5027035;28;20453;-71
2022/12/23 04:11:13;;;;;;;1999.90;999.90;;;11.10;99.90;;;;;;5027558;28;20460;-71
2022/12/23 04:13:39;;;;;;;1999.90;999.90;;;11.10;99.90;;;;;;5026482;28;20481;-71
2022/12/23 04:16:07;;;;;;;1999.90;999.90;;;11.10;99.90;;;;;;5027424;28;21050;-72
2022/12/23 04:18:34;;;;;;;1999.90;999.90;;;11.10;99.90;;;;;;5026986;28;20475;-70
2022/12/23 04:21:02;;;;;;;1999.90;999.90;;;11.10;99.90;;;;;;5027539;28;20444;-71
2022/12/23 04:23:29;;;;;;;1999.90;999.90;;;11.10;99.90;;;;;;5027223;28;21081;-72
2022/12/23 04:25:56;;;;;;;1999.90;999.90;;;11.10;99.90;;;;;;5027283;28;20460;-71
2022/12/23 04:28:22;;;;;;;1999.90;999.90;;;11.10;99.90;;;;;;5025151;28;20457;-71
2022/12/23 04:30:49;;;;;;;1999.90;999.90;;;11.10;99.90;;;;;;5008858;28;20446;-71
2022/12/23 04:33:16;;;;;;;1999.90;999.90;;;11.20;99.90;;;;;;5007553;28;20670;-71
2022/12/23 04:35:43;;;;;;;1999.90;999.90;;;11.30;99.90;;;;;;5007746;28;20467;-71
2022/12/23 04:38:11;;;;;;;1999.90;999.90;;;11.30;99.90;;;;;;5007394;28;20445;-70
2022/12/23 04:40:38;;;;;;;1999.90;999.90;;;11.40;99.90;;;;;;5019121;28;20958;-70
2022/12/23 04:43:04;;;;;;;1999.90;999.90;;;11.40;99.90;;;;;;5026687;28;20449;-71
2022/12/23 04:45:32;;;;;;;1999.90;999.90;;;11.40;99.90;;;;;;4987742;28;20485;-72
2022/12/23 04:47:59;;;;;;;1999.90;999.90;;;11.40;99.90;;;;;;4988204;28;20455;-71
2022/12/23 04:50:26;;;;;;;1999.90;999.90;;;11.40;99.90;;;;;;4987106;28;20443;-71
2022/12/23 04:52:52;;;;;;;1999.90;999.90;;;11.40;99.90;;;;;;4987701;28;20485;-70
2022/12/23 04:55:21;;;;;;;1999.90;999.90;;;11.40;99.90;;;;;;4996023;28;20501;-71
2022/12/23 04:57:47;;;;;;;1999.90;999.90;;;11.40;99.90;;;;;;5007734;28;20462;-71
2022/12/23 05:00:15;;;;;;;1999.90;999.90;;;11.30;99.90;;;;;;5006751;28;20454;-71
2022/12/23 05:02:42;;;;;;;1999.90;999.90;;;11.40;99.90;;;;;;5007146;28;21037;-72
2022/12/23 05:05:09;;;;;;;1999.90;999.90;;;11.40;99.90;;;;;;5007371;28;20493;-71
2022/12/23 05:07:36;;;;;;;1999.90;999.90;;;11.40;99.90;;;;;;5007758;28;20991;-72
2022/12/23 05:10:03;;;;;;;1999.90;999.90;;;11.40;99.90;;;;;;5006556;28;20462;-71
2022/12/23 05:12:31;;;;;;;1999.90;999.90;;;11.50;99.90;;;;;;5008146;28;20489;-71
2022/12/23 05:14:58;;;;;;;1999.90;999.90;;;11.50;99.90;;;;;;5007573;28;20476;-71
2022/12/23 05:17:25;;;;;;;1999.90;999.90;;;11.50;99.90;;;;;;5007529;28;20466;-71
2022/12/23 05:19:51;;;;;;;1999.90;999.90;;;11.60;99.90;;;;;;5022003;28;20449;-70
2022/12/23 05:22:18;;;;;;;1999.90;999.90;;;11.60;99.90;;;;;;5026611;28;20449;-71
2022/12/23 05:24:45;;;;;;;1999.90;999.90;;;11.60;99.90;;;;;;5026433;28;20472;-71
2022/12/23 05:27:12;;;;;;;1999.90;999.90;;;11.50;99.90;;;;;;5027388;28;20461;-70
2022/12/23 05:29:40;;;;;;;1999.90;999.90;;;11.60;99.90;;;;;;5026292;28;20816;-71
2022/12/23 05:32:07;;;;;;;1999.90;999.90;;;11.60;99.90;;;;;;5026865;28;20445;-72
2022/12/23 05:34:33;;;;;;;1999.90;999.90;;;11.60;99.90;;;;;;5026990;28;20481;-70
2022/12/23 05:37:00;;;;;;;1999.90;999.90;;;11.60;99.90;;;;;;5027335;28;20449;-71
2022/12/23 05:39:27;;;;;;;1999.90;999.90;;;11.60;99.90;;;;;;5024732;28;20469;-72
2022/12/23 05:41:54;;;;;;;1999.90;999.90;;;11.60;99.90;;;;;;5026920;28;21147;-70
2022/12/23 05:44:21;;;;;;;1999.90;999.90;;;11.70;99.90;;;;;;5026752;28;20487;-70
2022/12/23 05:46:49;;;;;;;1999.90;999.90;;;11.60;99.90;;;;;;5026987;28;20452;-70
2022/12/23 05:49:16;;;;;;;1999.90;999.90;;;11.70;99.90;;;;;;5026045;28;20455;-70
2022/12/23 05:51:42;;;;;;;1999.90;999.90;;;11.70;99.90;;;;;;5026764;28;20445;-70
2022/12/23 05:54:09;;;;;;;1999.90;999.90;;;11.70;99.90;;;;;;5026622;28;20498;-72
2022/12/23 05:56:36;;;;;;;1999.90;999.90;;;11.80;99.90;;;;;;5027016;28;20823;-71
2022/12/23 05:59:03;;;;;;;1999.90;999.90;;;11.70;99.90;;;;;;5010040;28;20452;-71
2022/12/23 06:01:29;;;;;;;1999.90;999.90;;;11.80;99.90;;;;;;5026563;28;20452;-72
2022/12/23 06:03:58;;;;;;;1999.90;999.90;;;11.80;99.90;;;;;;5029730;28;20457;-71
2022/12/23 06:06:24;;;;;;;1999.90;999.90;;;11.80;99.90;;;;;;5030456;28;20471;-71
2022/12/23 06:08:51;;;;;;;1999.90;999.90;;;11.90;99.90;;;;;;5013493;28;20453;-71
2022/12/23 06:11:18;;;;;;;1999.90;999.90;;;11.90;99.90;;;;;;5010138;28;20469;-72
2022/12/23 06:13:45;;;;;;;1999.90;999.90;;;11.90;99.90;;;;;;5009887;28;20500;-71
2022/12/23 06:16:11;;;;;;;1999.90;999.90;;;12.00;99.90;;;;;;5011389;28;20478;-71
2022/12/23 06:18:38;;;;;;;1999.90;999.90;;;12.00;99.90;;;;;;5009253;28;21081;-72
2022/12/23 06:21:06;;;;;;;1999.90;999.90;;;12.00;99.90;;;;;;5010258;28;20457;-72
2022/12/23 06:23:33;;;;;;;1999.90;999.90;;;12.00;99.90;;;;;;5010005;28;20521;-72
2022/12/23 06:26:00;;;;;;;1999.90;999.90;;;12.00;99.90;;;;;;5010061;28;20470;-71
2022/12/23 06:28:31;;;;;;;1999.90;999.90;;;12.10;99.90;;;;;;5009393;28;20982;-71
2022/12/23 06:30:58;;;;;;;1999.90;999.90;;;12.10;99.90;;;;;;5009855;28;20690;-70
2022/12/23 06:33:25;;;;;;;1999.90;999.90;;;12.10;99.90;;;;;;5010520;28;20474;-71
2022/12/23 06:35:52;;;;;;;1999.90;999.90;;;12.10;99.90;;;;;;5015233;28;21311;-70
2022/12/23 06:38:23;;;;;;;1999.90;999.90;;;12.10;99.90;;;;;;5029258;28;20453;-70
2022/12/23 06:40:50;;;;;;;1999.90;999.90;;;12.00;99.90;;;;;;5029569;28;20467;-71
2022/12/23 06:43:16;;;;;;;1999.90;999.90;;;12.00;99.90;;;;;;5029083;28;20448;-71
2022/12/23 06:45:46;;;;;;;1999.90;999.90;;;12.00;99.90;;;;;;5011798;28;20466;-71
2022/12/23 06:48:13;;;;;;;1999.90;999.90;;;12.00;99.90;;;;;;5009252;28;20453;-72
2022/12/23 06:50:40;;;;;;;1999.90;999.90;;;12.00;99.90;;;;;;5009688;28;20441;-72
2022/12/23 06:53:07;;;;;;;1999.90;999.90;;;12.00;99.90;;;;;;5009202;28;20485;-71
2022/12/23 06:55:35;;;;;;;1999.90;999.90;;;12.00;99.90;;;;;;5014250;28;21320;-71
2022/12/23 06:58:02;;;;;;;1999.90;999.90;;;12.00;99.90;;;;;;5028965;28;20835;-72
2022/12/23 07:00:29;;;;;;;1999.90;999.90;;;12.00;99.90;;;;;;5028671;28;20460;-71
2022/12/23 07:02:56;;;;;;;1999.90;999.90;;;11.90;99.90;;;;;;5029153;28;20528;-71
2022/12/23 07:05:23;;;;;;;1999.90;999.90;;;11.90;99.90;;;;;;5028850;28;20501;-70
2022/12/23 07:07:50;;;;;;;1999.90;999.90;;;11.80;99.90;;;;;;5029258;28;20449;-71
2022/12/23 07:10:16;;;;;;;1999.90;999.90;;;11.80;99.90;;;;;;5027086;28;21020;-70
2022/12/23 07:12:45;;;;;;;1999.90;999.90;;;11.80;99.90;;;;;;5027149;28;20861;-72
2022/12/23 07:15:11;;;;;;;1999.90;999.90;;;11.70;99.90;;;;;;5028711;28;20473;-72
2022/12/23 07:17:38;;;;;;;1999.90;999.90;;;11.80;99.90;;;;;;5029110;28;20445;-71
2022/12/23 07:20:07;;;;;;;1999.90;999.90;;;11.80;99.90;;;;;;5028171;28;20498;-71
2022/12/23 07:22:34;;;;;;;1999.90;999.90;;;11.70;99.90;;;;;;5028568;28;20444;-71
2022/12/23 07:25:00;;;;;;;1999.90;999.90;;;11.70;99.90;;;;;;5028513;28;20987;-70
2022/12/23 07:27:27;;;;;;;1999.90;999.90;;;11.70;99.90;;;;;;5028553;28;20452;-72
2022/12/23 07:29:55;;;;;;;1999.90;999.90;;;11.70;99.90;;;;;;5026392;28;20452;-72
2022/12/23 07:32:22;;;;;;;1999.90;999.90;;;11.70;99.90;;;;;;5028253;28;20516;-72
2022/12/23 07:34:49;;;;;;;1999.90;999.90;;;11.60;99.90;;;;;;5028451;28;20485;-71
2022/12/23 07:37:16;;;;;;;1999.90;999.90;;;11.60;99.90;;;;;;5028545;28;20445;-72
2022/12/23 07:39:42;;;;;;;1999.90;999.90;;;11.50;99.90;;;;;;5027760;28;20445;-71
2022/12/23 07:42:09;;;;;;;1999.90;999.90;;;11.50;99.90;;;;;;5028073;28;20472;-71
2022/12/23 07:44:36;;;;;;;1999.90;999.90;;;11.60;99.90;;;;;;5028372;28;20469;-71
2022/12/23 07:47:04;;;;;;;1999.90;999.90;;;11.40;99.90;;;;;;5026431;28;20449;-70
2022/12/23 07:49:31;;;;;;;1999.90;999.90;;;11.50;99.90;;;;;;5027454;28;20495;-71
2022/12/23 07:51:58;;;;;;;1999.90;999.90;;;11.50;99.90;;;;;;5028272;28;20449;-71
2022/12/23 07:54:24;;;;;;;1999.90;999.90;;;11.50;99.90;;;;;;5027463;28;20488;-71
2022/12/23 07:56:51;;;;;;;1999.90;999.90;;;11.50;99.90;;;;;;5028322;28;20985;-70
2022/12/23 07:59:18;;;;;;;1999.90;999.90;;;11.50;99.90;;;;;;5011333;28;20489;-71
2022/12/23 08:01:45;;;;;;;1999.90;999.90;;;11.60;99.90;;;;;;5020101;28;20449;-70
2022/12/23 08:04:13;;;;;;;1999.90;999.90;;;11.60;99.90;;;;;;5008222;28;20458;-70
2022/12/23 08:06:43;;;;;;;1999.90;999.90;;;11.60;99.90;;;;;;5008186;28;20442;-71
2022/12/23 08:09:10;;;;;;;1999.90;999.90;;;11.60;99.90;;;;;;5007273;28;20967;-71
2022/12/23 08:11:37;;;;;;;1999.90;999.90;;;11.60;99.90;;;;;;5008052;28;20471;-71
2022/12/23 08:14:06;;;;;;;1999.90;999.90;;;11.60;99.90;;;;;;5007857;28;21014;-72
2022/12/23 08:16:33;;;;;;;1999.90;999.90;;;11.60;99.90;;;;;;5015111;28;20939;-72
2022/12/23 08:19:00;;;;;;;1999.90;999.90;;;11.60;99.90;;;;;;5007672;28;20496;-71
2022/12/23 08:21:28;;;;;;;1999.90;999.90;;;11.60;99.90;;;;;;5007866;28;20481;-70
2022/12/23 08:23:55;;;;;;;1999.90;999.90;;;11.60;99.90;;;;;;5007404;28;20446;-75
2022/12/23 08:26:29;;;;;;;1999.90;999.90;;;11.60;99.90;;;;;;5008226;28;20453;-70
2022/12/23 08:28:56;;;;;;;1999.90;999.90;;;11.70;99.90;;;;;;5011044;28;20456;-70
2022/12/23 08:31:24;;;;;;;1999.90;999.90;;;11.70;99.90;;;;;;5027879;28;20456;-71
2022/12/23 08:33:54;;;;;;;1999.90;999.90;;;11.70;99.90;;;;;;5014043;28;20485;-71
2022/12/23 08:36:22;;;;;;;1999.90;999.90;;;11.70;99.90;;;;;;5007697;28;20450;-71
2022/12/23 08:38:54;;;;;;;1999.90;999.90;;;11.70;99.90;;;;;;5007239;28;20461;-70
2022/12/23 08:41:24;;;;;;;1999.90;999.90;;;11.80;99.90;;;;;;5002275;28;20473;-69
2022/12/23 08:43:51;;;;;;;1999.90;999.90;;;11.80;99.90;;;;;;5004505;28;20461;-66
2022/12/23 08:46:18;;;;;;;1999.90;999.90;;;11.80;99.90;;;;;;5007223;28;20456;-74
2022/12/23 08:48:45;;;;;;;1999.90;999.90;;;11.80;99.90;;;;;;5006611;28;20864;-70
2022/12/23 08:51:15;;;;;;;1999.90;999.90;;;11.80;99.90;;;;;;5007537;28;21234;-72
2022/12/23 08:53:43;;;;;;;1999.90;999.90;;;11.70;99.90;;;;;;5007561;28;20493;-72
2022/12/23 08:56:13;;;;;;;1999.90;999.90;;;11.80;99.90;;;;;;5007549;28;20524;-71
2022/12/23 08:58:41;;;;;;;1999.90;999.90;;;11.80;99.90;;;;;;5006862;28;20452;-70
2022/12/23 09:01:11;;;;;;;1999.90;999.90;;;11.90;99.90;;;;;;5009336;28;20453;-71
2022/12/23 09:03:38;;;;;;;1999.90;999.90;;;11.90;99.90;;;;;;5007749;28;20469;-69
2022/12/23 09:06:06;;;;;;;1999.90;999.90;;;12.00;99.90;;;;;;5007313;28;20505;-69
2022/12/23 09:08:34;;;;;;;1999.90;999.90;;;12.10;99.90;;;;;;5006406;28;20464;-70
2022/12/23 09:11:01;;;;;;;1999.90;999.90;;;12.10;99.90;;;;;;5007489;28;20460;-71
2022/12/23 09:13:29;;;;;;;1999.90;999.90;;;12.10;99.90;;;;;;5007076;28;20481;-69
2022/12/23 09:15:56;;;;;;;1999.90;999.90;;;12.20;99.90;;;;;;5006792;28;20474;-70
2022/12/23 09:18:23;;;;;;;1999.90;999.90;;;12.20;99.90;;;;;;5006863;28;20464;-71
2022/12/23 09:20:49;;;;;;;1999.90;999.90;;;12.10;99.90;;;;;;5003591;28;20465;-71
2022/12/23 09:23:16;;;;;;;1999.90;999.90;;;12.10;99.90;;;;;;5005292;28;20464;-70
2022/12/23 09:25:43;;;;;;;1999.90;999.90;;;12.10;99.90;;;;;;5005892;28;20503;-70
2022/12/23 09:28:10;;;;;;;1999.90;999.90;;;12.10;99.90;;;;;;5006011;28;20446;-71
2022/12/23 09:30:38;;;;;;;1999.90;999.90;;;12.20;99.90;;;;;;5005719;28;20975;-71
2022/12/23 09:33:05;;;;;;;1999.90;999.90;;;12.20;99.90;;;;;;5006678;28;20441;-70
2022/12/23 09:35:32;;;;;;;1999.90;999.90;;;12.30;99.90;;;;;;5009983;28;20464;-70
2022/12/23 09:37:59;;;;;;;1999.90;999.90;;;12.30;99.90;;;;;;5009792;28;20967;-69
2022/12/23 09:40:30;;;;;;;1999.90;999.90;;;12.30;99.90;;;;;;5008908;28;20433;-70
2022/12/23 09:43:05;;;;;;;1999.90;999.90;;;12.40;99.90;;;;;;5009504;28;20449;-71
2022/12/23 09:45:56;;;;;;;1999.90;999.90;;;12.40;99.90;;;;;;5011085;28;20469;-70
2022/12/23 09:48:26;;;;;;;1999.90;999.90;;;12.50;99.90;;;;;;5005561;28;20990;-71
2022/12/23 09:50:54;;;;;;;1999.90;999.90;;;12.60;99.90;;;;;;5009189;28;20446;-69
2022/12/23 09:53:22;;;;;;;1999.90;999.90;;;12.60;99.90;;;;;;5007377;28;20462;-70
2022/12/23 09:55:54;;;;;;;1999.90;999.90;;;12.70;99.90;;;;;;5008200;28;20469;-71
2022/12/23 09:58:29;;;;;;;1999.90;999.90;;;12.70;99.90;;;;;;5009703;28;20549;-71
2022/12/23 10:01:15;;;;;;;1999.90;999.90;;;12.70;99.90;;;;;;5002678;28;20445;-71
2022/12/23 10:04:03;;;;;;;1999.90;999.90;;;12.80;99.90;;;;;;5001260;28;20454;-71
2022/12/23 10:06:31;;;;;;;1999.90;999.90;;;12.80;99.90;;;;;;5000534;28;20449;-71
2022/12/23 10:09:02;;;;;;;1999.90;999.90;;;12.80;99.90;;;;;;5000832;28;20458;-71
2022/12/23 10:11:34;;;;;;;1999.90;999.90;;;12.80;99.90;;;;;;5000180;28;21291;-71
2022/12/23 10:14:04;;;;;;;1999.90;999.90;;;12.80;99.90;;;;;;5001245;28;20493;-71
2022/12/23 10:16:38;;;;;;;1999.90;999.90;;;12.70;99.90;;;;;;5002090;28;20446;-72
2022/12/23 10:19:12;;;;;;;1999.90;999.90;;;12.70;99.90;;;;;;4997133;28;20983;-71
2022/12/23 10:21:45;;;;;;;1999.90;999.90;;;12.70;99.90;;;;;;5002662;28;20453;-71
2022/12/23 10:24:18;;;;;;;1999.90;999.90;;;12.70;99.90;;;;;;4999785;28;20477;-69
2022/12/23 10:26:51;;;;;;;1999.90;999.90;;;12.80;99.90;;;;;;5000851;28;20944;-70
2022/12/23 10:29:20;;;;;;;1999.90;999.90;;;12.80;99.90;;;;;;4998232;28;20446;-71
2022/12/23 10:31:57;;;;;;;1999.90;999.90;;;12.80;99.90;;;;;;4999186;28;20536;-71
2022/12/23 10:34:33;;;;;;;1999.90;999.90;;;12.80;99.90;;;;;;5001029;28;20495;-71
2022/12/23 10:37:06;;;;;;;1999.90;999.90;;;12.80;99.90;;;;;;5002609;28;20450;-70
2022/12/23 10:39:37;;;;;;;1999.90;999.90;;;12.90;99.90;;;;;;5005320;28;20453;-71
2022/12/23 10:42:16;;;;;;;1999.90;999.90;;;12.90;99.90;;;;;;5005925;28;20472;-71
2022/12/23 10:45:10;;;;;;;1999.90;999.90;;;13.00;99.90;;;;;;5001148;28;20472;-71
2022/12/23 10:47:48;;;;;;;1999.90;999.90;;;13.10;99.90;;;;;;4998006;28;20464;-70
2022/12/23 10:50:44;;;;;;;1999.90;999.90;;;13.20;99.90;;;;;;5000735;28;20453;-71
2022/12/23 10:53:16;;;;;;;1999.90;999.90;;;13.20;99.90;;;;;;5006530;28;20454;-71
2022/12/23 10:55:44;;;;;;;1999.90;999.90;;;13.20;99.90;;;;;;5007963;28;20489;-71
2022/12/23 10:58:17;;;;;;;1999.90;999.90;;;13.10;99.90;;;;;;5008537;28;20446;-72
2022/12/23 11:00:49;;;;;;;1999.90;999.90;;;13.10;99.90;;;;;;5000799;28;20457;-69
2022/12/23 11:03:22;;;;;;;1999.90;999.90;;;13.10;99.90;;;;;;4994203;28;20446;-70
2022/12/23 11:05:51;;;;;;;1999.90;999.90;;;13.10;99.90;;;;;;5000783;28;20473;-69
2022/12/23 11:08:21;;;;;;;1999.90;999.90;;;13.00;99.90;;;;;;5001098;28;20934;-68
2022/12/23 11:10:48;;;;;;;1999.90;999.90;;;13.00;99.90;;;;;;5005928;28;20461;-69
2022/12/23 11:13:24;;;;;;;1999.90;999.90;;;13.00;99.90;;;;;;5004408;28;20820;-69
2022/12/23 11:15:52;;;;;;;1999.90;999.90;;;12.90;99.90;;;;;;5005191;28;20489;-69
2022/12/23 11:18:21;;;;;;;1999.90;999.90;;;12.90;99.90;;;;;;5006212;28;20504;-70
2022/12/23 11:21:06;;;;;;;1999.90;999.90;;;13.00;99.90;;;;;;5005675;28;20454;-69
2022/12/23 11:23:35;;;;;;;1999.90;999.90;;;13.00;99.90;;;;;;5004820;28;20466;-69
2022/12/23 11:26:05;;;;;;;1999.90;999.90;;;13.00;99.90;;;;;;5006066;28;20597;-72
2022/12/23 11:28:35;;;;;;;1999.90;999.90;;;12.90;99.90;;;;;;5002238;28;20463;-68
2022/12/23 11:31:08;;;;;;;1999.90;999.90;;;12.90;99.90;;;;;;5005528;28;20453;-69
2022/12/23 11:33:39;;;;;;;1999.90;999.90;;;12.80;99.90;;;;;;5005688;28;20453;-70
2022/12/23 11:36:13;;;;;;;1999.90;999.90;;;12.80;99.90;;;;;;5004774;28;20544;-69
2022/12/23 11:38:49;;;;;;;1999.90;999.90;;;12.80;99.90;;;;;;5003536;28;20445;-69
2022/12/23 11:41:20;;;;;;;1999.90;999.90;;;12.80;99.90;;;;;;5006988;28;20437;-70
2022/12/23 11:43:54;;;;;;;1999.90;999.90;;;12.80;99.90;;;;;;5008347;28;20536;-72
2022/12/23 11:46:26;;;;;;;1999.90;999.90;;;12.90;99.90;;;;;;5006225;28;20437;-72
2022/12/23 11:49:16;;;;;;;1999.90;999.90;;;12.90;99.90;;;;;;5006285;28;20458;-71
2022/12/23 11:51:43;;;;;;;1999.90;999.90;;;12.90;99.90;;;;;;5004577;28;20457;-71
2022/12/23 11:54:17;;;;;;;1999.90;999.90;;;13.00;99.90;;;;;;5004401;28;20539;-71
2022/12/23 11:56:44;;;;;;;1999.90;999.90;;;13.10;99.90;;;;;;4999194;28;20532;-71
2022/12/23 11:59:32;;;;;;;1999.90;999.90;;;13.00;99.90;;;;;;5007348;28;21407;-71
2022/12/23 12:02:01;;;;;;;1999.90;999.90;;;13.00;99.90;;;;;;5007772;28;20460;-71
2022/12/23 12:04:32;;;;;;;1999.90;999.90;;;12.90;99.90;;;;;;5006572;28;20472;-73
2022/12/23 12:07:00;;;;;;;1999.90;999.90;;;12.90;99.90;;;;;;5005074;28;20455;-70
2022/12/23 12:09:30;;;;;;;1999.90;999.90;;;12.90;99.90;;;;;;4995601;28;20457;-71
2022/12/23 12:12:02;;;;;;;1999.90;999.90;;;12.90;99.90;;;;;;5001918;28;20457;-70
2022/12/23 12:14:33;;;;;;;1999.90;999.90;;;12.90;99.90;;;;;;5004618;28;20489;-69
2022/12/23 12:17:05;;;;;;;1999.90;999.90;;;12.80;99.90;;;;;;5005959;28;21018;-73
2022/12/23 12:19:39;;;;;;;1999.90;999.90;;;12.80;99.90;;;;;;5004110;28;20445;-70
2022/12/23 12:22:14;;;;;;;1999.90;999.90;;;12.80;99.90;;;;;;5004029;28;20450;-71
2022/12/23 12:24:44;;;;;;;1999.90;999.90;;;12.80;99.90;;;;;;5003702;28;20457;-70
2022/12/23 12:27:11;;;;;;;1999.90;999.90;;;12.80;99.90;;;;;;5001751;28;20446;-77
2022/12/23 12:29:44;;;;;;;1999.90;999.90;;;12.90;99.90;;;;;;5003646;28;20537;-67
2022/12/23 12:32:18;;;;;;;1999.90;999.90;;;12.90;99.90;;;;;;4999454;28;20442;-72
2022/12/23 12:34:53;;;;;;;1999.90;999.90;;;12.90;99.90;;;;;;5027331;28;20572;-70
2022/12/23 12:37:33;;;;;;;1999.90;999.90;;;12.90;99.90;;;;;;5022211;28;20457;-71